Time;durP1;ratioP1;P1;durP2;ratioP2;P2;SDS_P1;SDS_P2;PMS_P1;PMS_P2;Temp;Humidity;BMP_temperature;BMP_pressure;BME280_temperature;BME280_humidity;BME280_pressure;Samples;Min_cycle;Max_cycle;Signal;HPM_P1;HPM_P2
2022/05/18 00:00:27;;;;;;;60.73;4.13;;;;;;;;;;5072564;28;20460;-77
2022/05/18 00:02:55;;;;;;;59.50;3.30;;;;;;;;;;5072777;28;20456;-77
2022/05/18 00:05:22;;;;;;;59.40;3.20;;;;;;;;;;5072371;28;20458;-77
2022/05/18 00:07:51;;;;;;;59.20;2.90;;;;;;;;;;5071987;28;20451;-77
2022/05/18 00:10:18;;;;;;;59.60;3.37;;;;;;;;;;5072213;28;20555;-77
2022/05/18 00:12:46;;;;;;;59.70;3.30;;;;;;;;;;5072291;28;20526;-77
2022/05/18 00:15:14;;;;;;;59.27;2.97;;;;;;;;;;5072423;28;20447;-78
2022/05/18 00:17:41;;;;;;;59.33;3.00;;;;;;;;;;5071519;28;21038;-77
2022/05/18 00:20:09;;;;;;;59.27;3.23;;;;;;;;;;5071579;28;20900;-77
2022/05/18 00:22:43;;;;;;;59.20;3.33;;;;;;;;;;5072056;28;20472;-77
2022/05/18 00:25:12;;;;;;;59.13;3.10;;;;;;;;;;5072026;28;20447;-78
2022/05/18 00:27:39;;;;;;;59.07;3.03;;;;;;;;;;5071751;28;20486;-78
2022/05/18 00:30:07;;;;;;;59.47;3.23;;;;;;;;;;5072166;28;20838;-78
2022/05/18 00:32:34;;;;;;;59.07;2.97;;;;;;;;;;5072179;28;20547;-78
2022/05/18 00:35:01;;;;;;;59.20;3.10;;;;;;;;;;5072191;28;20530;-78
2022/05/18 00:37:28;;;;;;;59.70;3.20;;;;;;;;;;5071327;28;20901;-77
2022/05/18 00:39:55;;;;;;;59.33;3.20;;;;;;;;;;5071671;28;20898;-77
2022/05/18 00:42:25;;;;;;;59.30;3.07;;;;;;;;;;5072418;28;20475;-77
2022/05/18 00:44:53;;;;;;;58.87;3.07;;;;;;;;;;5072099;28;20447;-77
2022/05/18 00:47:20;;;;;;;59.30;3.10;;;;;;;;;;5071273;28;20444;-77
2022/05/18 00:49:49;;;;;;;59.20;3.10;;;;;;;;;;5071669;28;20541;-77
2022/05/18 00:52:17;;;;;;;59.27;3.00;;;;;;;;;;5071721;28;20462;-77
2022/05/18 00:54:44;;;;;;;59.43;3.20;;;;;;;;;;5071952;28;20478;-77
2022/05/18 00:57:15;;;;;;;59.27;2.90;;;;;;;;;;5070886;28;20451;-78
2022/05/18 00:59:46;;;;;;;60.27;3.63;;;;;;;;;;5072035;28;20483;-78
2022/05/18 01:02:13;;;;;;;59.27;3.40;;;;;;;;;;5072052;28;20451;-77
2022/05/18 01:04:42;;;;;;;59.40;3.37;;;;;;;;;;5071508;28;20936;-78
2022/05/18 01:07:10;;;;;;;59.77;3.93;;;;;;;;;;5071762;28;20451;-77
2022/05/18 01:09:39;;;;;;;59.27;3.10;;;;;;;;;;5071576;28;20447;-77
2022/05/18 01:12:07;;;;;;;59.27;3.40;;;;;;;;;;5071805;28;20472;-78
2022/05/18 01:14:36;;;;;;;58.97;2.70;;;;;;;;;;5071541;28;20490;-77
2022/05/18 01:17:05;;;;;;;59.60;3.63;;;;;;;;;;5071670;28;20462;-77
2022/05/18 01:19:35;;;;;;;59.07;3.47;;;;;;;;;;5071100;28;20573;-77
2022/05/18 01:22:06;;;;;;;59.07;2.80;;;;;;;;;;5071491;28;20450;-78
2022/05/18 01:24:35;;;;;;;59.33;2.90;;;;;;;;;;5071421;28;20448;-78
2022/05/18 01:27:04;;;;;;;59.37;2.90;;;;;;;;;;5071432;28;20455;-77
2022/05/18 01:29:31;;;;;;;59.20;3.10;;;;;;;;;;5071026;28;20527;-78
2022/05/18 01:32:00;;;;;;;59.13;2.70;;;;;;;;;;5072835;28;20506;-77
2022/05/18 01:34:28;;;;;;;59.23;2.90;;;;;;;;;;5064701;28;20526;-77
2022/05/18 01:36:56;;;;;;;59.70;3.47;;;;;;;;;;5055282;28;20531;-77
2022/05/18 01:39:27;;;;;;;59.47;2.83;;;;;;;;;;5054584;28;20487;-77
2022/05/18 01:41:56;;;;;;;59.60;3.60;;;;;;;;;;5054377;28;20769;-78
2022/05/18 01:44:26;;;;;;;59.57;3.47;;;;;;;;;;5075160;28;20474;-77
2022/05/18 01:46:53;;;;;;;58.97;2.80;;;;;;;;;;5075115;28;20453;-78
2022/05/18 01:49:21;;;;;;;59.50;2.80;;;;;;;;;;5074484;28;20522;-77
2022/05/18 01:51:51;;;;;;;61.17;3.43;;;;;;;;;;5074985;28;20494;-77
2022/05/18 01:54:18;;;;;;;60.77;4.40;;;;;;;;;;5074686;28;20519;-77
2022/05/18 01:56:45;;;;;;;59.50;2.93;;;;;;;;;;5074770;28;20478;-77
2022/05/18 01:59:12;;;;;;;59.20;2.90;;;;;;;;;;5074147;28;21104;-77
2022/05/18 02:01:41;;;;;;;59.43;3.70;;;;;;;;;;5074764;28;21017;-77
2022/05/18 02:04:08;;;;;;;59.67;3.20;;;;;;;;;;5074799;28;20529;-78
2022/05/18 02:06:36;;;;;;;59.20;3.30;;;;;;;;;;5079800;28;20486;-78
2022/05/18 02:09:04;;;;;;;59.17;3.00;;;;;;;;;;5084409;28;20453;-78
2022/05/18 02:11:33;;;;;;;60.10;3.70;;;;;;;;;;5074454;28;21041;-78
2022/05/18 02:14:00;;;;;;;59.30;3.47;;;;;;;;;;5074614;28;20486;-78
2022/05/18 02:16:27;;;;;;;59.33;2.90;;;;;;;;;;5074650;28;20447;-77
2022/05/18 02:18:56;;;;;;;59.17;2.70;;;;;;;;;;5074055;28;20616;-77
2022/05/18 02:21:23;;;;;;;59.03;3.20;;;;;;;;;;5074225;28;20850;-77
2022/05/18 02:23:50;;;;;;;59.37;3.20;;;;;;;;;;5074424;28;20443;-78
2022/05/18 02:26:19;;;;;;;59.17;2.83;;;;;;;;;;5074578;28;20452;-77
2022/05/18 02:28:46;;;;;;;59.57;3.80;;;;;;;;;;5073816;28;20443;-77
2022/05/18 02:31:14;;;;;;;58.97;2.87;;;;;;;;;;5074593;28;20565;-77
2022/05/18 02:33:42;;;;;;;59.03;3.00;;;;;;;;;;5074249;28;20529;-77
2022/05/18 02:36:12;;;;;;;58.87;3.07;;;;;;;;;;5074272;28;20533;-78
2022/05/18 02:38:40;;;;;;;59.00;3.00;;;;;;;;;;5073428;28;20565;-77
2022/05/18 02:41:07;;;;;;;59.33;3.43;;;;;;;;;;5074147;28;20515;-77
2022/05/18 02:43:38;;;;;;;59.67;2.97;;;;;;;;;;5073144;28;20451;-77
2022/05/18 02:46:06;;;;;;;59.57;3.67;;;;;;;;;;5074111;28;21119;-77
2022/05/18 02:48:33;;;;;;;59.67;3.17;;;;;;;;;;5073067;28;20481;-77
2022/05/18 02:51:01;;;;;;;59.20;3.10;;;;;;;;;;5074033;28;20495;-77
2022/05/18 02:53:29;;;;;;;59.67;3.20;;;;;;;;;;5074566;28;20447;-77
2022/05/18 02:56:07;;;;;;;59.03;2.90;;;;;;;;;;5073839;28;20451;-78
2022/05/18 02:58:36;;;;;;;75.97;5.80;;;;;;;;;;5072938;28;20570;-78
2022/05/18 03:01:04;;;;;;;59.23;3.10;;;;;;;;;;5073547;28;20544;-77
2022/05/18 03:03:31;;;;;;;59.83;3.80;;;;;;;;;;5074019;28;20744;-77
2022/05/18 03:05:58;;;;;;;59.37;3.00;;;;;;;;;;5074103;28;20447;-77
2022/05/18 03:08:25;;;;;;;59.00;2.90;;;;;;;;;;5073051;28;20526;-77
2022/05/18 03:10:54;;;;;;;59.43;3.10;;;;;;;;;;5073522;28;20467;-77
2022/05/18 03:13:21;;;;;;;59.20;3.10;;;;;;;;;;5073408;28;20458;-77
2022/05/18 03:15:48;;;;;;;58.90;3.10;;;;;;;;;;5073799;28;20546;-77
2022/05/18 03:18:16;;;;;;;59.23;2.90;;;;;;;;;;5072408;28;20537;-77
2022/05/18 03:23:34;;;;;;;59.40;3.20;;;;;;;;;;5073474;28;20418;-78
2022/05/18 03:26:03;;;;;;;59.07;2.97;;;;;;;;;;5073029;28;20485;-78
2022/05/18 03:28:30;;;;;;;59.47;3.10;;;;;;;;;;5072603;28;20443;-77
2022/05/18 03:30:58;;;;;;;60.47;3.70;;;;;;;;;;5073183;28;20477;-77
2022/05/18 03:33:25;;;;;;;59.40;3.37;;;;;;;;;;5073422;28;20554;-78
2022/05/18 03:35:52;;;;;;;59.47;3.47;;;;;;;;;;5073117;28;20815;-77
2022/05/18 03:38:20;;;;;;;59.47;3.40;;;;;;;;;;5071969;28;20483;-77
2022/05/18 03:40:47;;;;;;;59.30;3.07;;;;;;;;;;5073242;28;20900;-77
2022/05/18 03:43:16;;;;;;;59.50;3.27;;;;;;;;;;5072826;28;21068;-78
2022/05/18 03:45:43;;;;;;;58.80;3.10;;;;;;;;;;5072750;28;20968;-77
2022/05/18 03:48:12;;;;;;;59.27;2.90;;;;;;;;;;5072225;28;20479;-76
2022/05/18 03:50:40;;;;;;;75.57;4.37;;;;;;;;;;5072744;28;20475;-77
2022/05/18 03:53:08;;;;;;;59.53;4.00;;;;;;;;;;5072629;28;20892;-77
2022/05/18 03:55:36;;;;;;;59.70;3.67;;;;;;;;;;5072102;28;20534;-77
2022/05/18 03:58:03;;;;;;;58.93;2.77;;;;;;;;;;5071846;28;20457;-78
2022/05/18 04:00:32;;;;;;;59.40;3.10;;;;;;;;;;5072477;28;20483;-77
2022/05/18 04:02:59;;;;;;;59.37;2.90;;;;;;;;;;5072386;28;20538;-77
2022/05/18 04:05:26;;;;;;;59.40;3.10;;;;;;;;;;5072351;28;20466;-78
2022/05/18 04:07:54;;;;;;;67.93;5.40;;;;;;;;;;5072008;28;20501;-77
2022/05/18 04:10:21;;;;;;;59.40;3.20;;;;;;;;;;5072583;28;20506;-77
2022/05/18 04:12:48;;;;;;;59.53;3.13;;;;;;;;;;5072721;28;20456;-77
2022/05/18 04:15:17;;;;;;;59.27;3.53;;;;;;;;;;5072482;28;20834;-77
2022/05/18 04:17:46;;;;;;;59.43;3.40;;;;;;;;;;5071610;28;20451;-77
2022/05/18 04:20:14;;;;;;;59.03;3.20;;;;;;;;;;5072108;28;20574;-77
2022/05/18 04:22:41;;;;;;;58.93;2.90;;;;;;;;;;5072202;28;20455;-77
2022/05/18 04:25:09;;;;;;;59.47;3.30;;;;;;;;;;5072138;28;20948;-76
2022/05/18 04:27:36;;;;;;;59.30;3.40;;;;;;;;;;5071558;28;20504;-77
2022/05/18 04:30:03;;;;;;;59.50;3.97;;;;;;;;;;5072063;28;20486;-77
2022/05/18 04:32:30;;;;;;;58.97;2.90;;;;;;;;;;5071708;28;20978;-77
2022/05/18 04:34:59;;;;;;;59.00;3.33;;;;;;;;;;5072233;28;20995;-77
2022/05/18 04:37:26;;;;;;;58.77;2.87;;;;;;;;;;5071612;28;20447;-77
2022/05/18 04:39:53;;;;;;;59.17;3.13;;;;;;;;;;5071973;28;20485;-78
2022/05/18 04:42:22;;;;;;;59.07;3.20;;;;;;;;;;5072466;28;20538;-77
2022/05/18 04:44:50;;;;;;;58.83;2.90;;;;;;;;;;5072293;28;20504;-78
2022/05/18 04:47:18;;;;;;;58.93;2.73;;;;;;;;;;5071342;28;20484;-78
2022/05/18 04:49:45;;;;;;;59.40;3.23;;;;;;;;;;5072162;28;20536;-78
2022/05/18 04:52:13;;;;;;;58.93;3.10;;;;;;;;;;5072575;28;20529;-77
2022/05/18 04:54:40;;;;;;;59.27;3.37;;;;;;;;;;5071986;28;20558;-76
2022/05/18 04:57:08;;;;;;;59.50;3.40;;;;;;;;;;5072090;28;20533;-76
2022/05/18 04:59:35;;;;;;;61.97;3.40;;;;;;;;;;5071628;28;20491;-76
2022/05/18 05:02:03;;;;;;;58.93;2.90;;;;;;;;;;5072818;28;20881;-76
2022/05/18 05:04:30;;;;;;;58.63;2.93;;;;;;;;;;5072343;28;20541;-77
2022/05/18 05:06:57;;;;;;;59.20;3.23;;;;;;;;;;5083752;28;20507;-77
2022/05/18 05:09:26;;;;;;;59.27;3.10;;;;;;;;;;5086120;28;20500;-76
2022/05/18 05:11:53;;;;;;;59.17;3.30;;;;;;;;;;5071870;28;20876;-77
2022/05/18 05:14:21;;;;;;;64.43;5.57;;;;;;;;;;5071725;28;20542;-76
2022/05/18 05:16:48;;;;;;;58.90;2.93;;;;;;;;;;5071699;28;20451;-76
2022/05/18 05:19:16;;;;;;;59.80;3.30;;;;;;;;;;5070664;28;21023;-76
2022/05/18 05:21:43;;;;;;;59.57;3.73;;;;;;;;;;5072011;28;20478;-76
2022/05/18 05:24:11;;;;;;;58.97;3.17;;;;;;;;;;5071702;28;20538;-76
2022/05/18 05:26:39;;;;;;;60.07;3.60;;;;;;;;;;5071336;28;20446;-77
2022/05/18 05:29:07;;;;;;;59.10;3.00;;;;;;;;;;5072089;28;20443;-76
2022/05/18 05:31:34;;;;;;;66.50;3.57;;;;;;;;;;5071605;28;20476;-77
2022/05/18 05:34:01;;;;;;;59.47;3.27;;;;;;;;;;5071583;28;20962;-77
2022/05/18 05:36:28;;;;;;;59.43;3.30;;;;;;;;;;5071520;28;20459;-77
2022/05/18 05:38:56;;;;;;;59.10;3.73;;;;;;;;;;5070483;28;21070;-78
2022/05/18 05:41:24;;;;;;;58.80;2.80;;;;;;;;;;5072427;28;20463;-78
2022/05/18 05:43:52;;;;;;;59.17;3.13;;;;;;;;;;5071612;28;20539;-78
2022/05/18 05:46:19;;;;;;;59.40;3.47;;;;;;;;;;5071712;28;20453;-78
2022/05/18 05:48:47;;;;;;;59.07;3.23;;;;;;;;;;5070959;28;20893;-77
2022/05/18 05:51:15;;;;;;;59.07;3.50;;;;;;;;;;5071362;28;20548;-77
2022/05/18 05:53:43;;;;;;;59.67;3.43;;;;;;;;;;5071252;28;20831;-78
2022/05/18 05:56:11;;;;;;;59.67;3.67;;;;;;;;;;5071411;28;20488;-78
2022/05/18 05:58:39;;;;;;;59.30;3.60;;;;;;;;;;5070758;28;20455;-77
2022/05/18 06:01:09;;;;;;;59.40;3.40;;;;;;;;;;5071271;28;20497;-78
2022/05/18 06:03:36;;;;;;;59.37;3.47;;;;;;;;;;5071792;28;20536;-77
2022/05/18 06:06:04;;;;;;;60.00;3.17;;;;;;;;;;5071309;28;20961;-78
2022/05/18 06:08:32;;;;;;;59.47;3.27;;;;;;;;;;5070315;28;20460;-78
2022/05/18 06:10:59;;;;;;;58.80;3.23;;;;;;;;;;5070584;28;21024;-78
2022/05/18 06:13:27;;;;;;;63.30;5.33;;;;;;;;;;5071273;28;20531;-78
2022/05/18 06:15:54;;;;;;;59.50;3.87;;;;;;;;;;5071534;28;20501;-77
2022/05/18 06:18:23;;;;;;;63.13;4.53;;;;;;;;;;5070254;28;21005;-77
2022/05/18 06:20:50;;;;;;;59.40;4.23;;;;;;;;;;5074444;28;21016;-77
2022/05/18 06:23:18;;;;;;;58.93;3.40;;;;;;;;;;5074605;28;20450;-78
2022/05/18 06:25:46;;;;;;;58.93;3.30;;;;;;;;;;5074586;28;20457;-77
2022/05/18 06:28:13;;;;;;;59.63;3.87;;;;;;;;;;5073514;28;20458;-78
2022/05/18 06:30:41;;;;;;;59.57;3.70;;;;;;;;;;5074226;28;20559;-78
2022/05/18 06:33:09;;;;;;;59.10;3.40;;;;;;;;;;5074192;28;20454;-75
2022/05/18 06:35:38;;;;;;;66.83;4.13;;;;;;;;;;5074144;28;20461;-75
2022/05/18 06:38:10;;;;;;;61.10;3.90;;;;;;;;;;5073474;28;20899;-75
2022/05/18 06:43:23;;;;;;;58.70;3.20;;;;;;;;;;5074357;28;20429;-75
2022/05/18 06:45:50;;;;;;;59.47;3.67;;;;;;;;;;5073759;28;20873;-75
2022/05/18 06:48:17;;;;;;;58.70;3.60;;;;;;;;;;5073198;28;20493;-75
2022/05/18 06:50:46;;;;;;;59.20;3.73;;;;;;;;;;5074212;28;20472;-75
2022/05/18 06:53:13;;;;;;;58.93;2.80;;;;;;;;;;5074103;28;20461;-75
2022/05/18 06:55:40;;;;;;;61.17;4.50;;;;;;;;;;5073798;28;20962;-75
2022/05/18 06:58:07;;;;;;;59.00;3.07;;;;;;;;;;5073246;28;20451;-76
2022/05/18 07:00:35;;;;;;;60.00;3.57;;;;;;;;;;5073196;28;20487;-75
2022/05/18 07:03:02;;;;;;;59.63;3.67;;;;;;;;;;5073716;28;20460;-75
2022/05/18 07:05:29;;;;;;;58.63;3.13;;;;;;;;;;5073178;28;20444;-75
2022/05/18 07:07:57;;;;;;;59.80;3.97;;;;;;;;;;5078212;28;20495;-75
2022/05/18 07:10:26;;;;;;;58.27;3.10;;;;;;;;;;5079231;28;21062;-75
2022/05/18 07:12:54;;;;;;;60.57;3.60;;;;;;;;;;5072886;28;20462;-75
2022/05/18 07:15:21;;;;;;;58.90;2.97;;;;;;;;;;5073771;28;20487;-75
2022/05/18 07:17:48;;;;;;;59.17;3.03;;;;;;;;;;5072906;28;20990;-75
2022/05/18 07:20:15;;;;;;;64.40;4.17;;;;;;;;;;5074093;28;20486;-80
2022/05/18 07:22:42;;;;;;;60.07;4.10;;;;;;;;;;5074075;28;20450;-79
2022/05/18 07:25:11;;;;;;;59.37;3.07;;;;;;;;;;5073578;28;20958;-78
2022/05/18 07:27:39;;;;;;;58.93;3.07;;;;;;;;;;5073015;28;20460;-76
2022/05/18 07:30:07;;;;;;;59.00;3.00;;;;;;;;;;5072829;28;20467;-78
2022/05/18 07:32:34;;;;;;;59.50;3.10;;;;;;;;;;5073653;28;20456;-78
2022/05/18 07:35:02;;;;;;;58.90;2.90;;;;;;;;;;5072996;28;20542;-79
2022/05/18 07:37:29;;;;;;;60.70;4.50;;;;;;;;;;5073539;28;20453;-78
2022/05/18 07:39:56;;;;;;;59.67;3.10;;;;;;;;;;5072752;28;20483;-78
2022/05/18 07:42:24;;;;;;;58.27;2.93;;;;;;;;;;5073333;28;20459;-78
2022/05/18 07:44:52;;;;;;;58.57;3.03;;;;;;;;;;5073871;28;20448;-79
2022/05/18 07:47:20;;;;;;;59.87;3.00;;;;;;;;;;5072756;28;20528;-78
2022/05/18 07:49:47;;;;;;;59.07;2.80;;;;;;;;;;5072862;28;20880;-79
2022/05/18 07:52:14;;;;;;;60.67;3.30;;;;;;;;;;5073231;28;20451;-79
2022/05/18 07:54:44;;;;;;;59.67;3.50;;;;;;;;;;5073485;28;20449;-79
2022/05/18 07:57:11;;;;;;;59.67;3.20;;;;;;;;;;5073051;28;20464;-79
2022/05/18 07:59:40;;;;;;;60.43;3.50;;;;;;;;;;5072801;28;20820;-79
2022/05/18 08:02:07;;;;;;;58.37;2.60;;;;;;;;;;5073470;28;20570;-78
2022/05/18 08:04:35;;;;;;;58.80;3.20;;;;;;;;;;5073188;28;20482;-79
2022/05/18 08:07:02;;;;;;;58.57;3.00;;;;;;;;;;5072741;28;20450;-78
2022/05/18 08:09:29;;;;;;;59.10;3.10;;;;;;;;;;5072364;28;20460;-78
2022/05/18 08:17:27;;;;;;;59.00;3.07;;;;;;;;;;5071788;28;20578;-79
2022/05/18 08:19:54;;;;;;;59.30;3.30;;;;;;;;;;5072499;28;20478;-78
2022/05/18 08:22:22;;;;;;;60.07;3.43;;;;;;;;;;5072433;28;20459;-78
2022/05/18 08:24:49;;;;;;;58.87;2.90;;;;;;;;;;5072572;28;20447;-76
2022/05/18 08:27:17;;;;;;;58.67;2.63;;;;;;;;;;5071775;28;21030;-76
2022/05/18 08:29:46;;;;;;;59.67;3.17;;;;;;;;;;5072056;28;20436;-76
2022/05/18 08:32:13;;;;;;;59.10;3.33;;;;;;;;;;5072117;28;20818;-76
2022/05/18 08:34:40;;;;;;;60.37;3.50;;;;;;;;;;5072136;28;20452;-76
2022/05/18 08:37:07;;;;;;;60.27;2.90;;;;;;;;;;5076963;28;20499;-77
2022/05/18 08:39:34;;;;;;;59.57;3.10;;;;;;;;;;5074781;28;20899;-76
2022/05/18 08:42:01;;;;;;;59.67;3.27;;;;;;;;;;5071110;28;20490;-76
2022/05/18 08:44:31;;;;;;;58.87;2.97;;;;;;;;;;5072303;28;20443;-76
2022/05/18 08:47:07;;;;;;;59.17;3.20;;;;;;;;;;5072173;28;20459;-76
2022/05/18 08:49:39;;;;;;;58.90;2.97;;;;;;;;;;5072042;28;20447;-76
2022/05/18 08:52:13;;;;;;;59.13;3.00;;;;;;;;;;5072193;28;20467;-76
2022/05/18 08:54:44;;;;;;;58.80;2.83;;;;;;;;;;5071984;28;20450;-76
2022/05/18 08:57:17;;;;;;;59.00;3.10;;;;;;;;;;5071323;28;20443;-76
2022/05/18 08:59:46;;;;;;;59.40;2.90;;;;;;;;;;5071770;28;20455;-76
2022/05/18 09:02:17;;;;;;;58.90;2.93;;;;;;;;;;5072323;28;20506;-76
2022/05/18 09:04:46;;;;;;;58.30;2.63;;;;;;;;;;5072426;28;20454;-76
2022/05/18 09:07:16;;;;;;;59.10;3.17;;;;;;;;;;5071527;28;20449;-76
2022/05/18 09:12:32;;;;;;;58.73;2.80;;;;;;;;;;5071576;28;20474;-76
2022/05/18 09:14:59;;;;;;;59.20;2.93;;;;;;;;;;5071793;28;20453;-76
2022/05/18 09:17:33;;;;;;;58.93;2.83;;;;;;;;;;5071270;28;20975;-76
2022/05/18 09:20:12;;;;;;;60.07;3.13;;;;;;;;;;5071229;28;20512;-75
2022/05/18 09:22:47;;;;;;;58.80;2.50;;;;;;;;;;5071896;28;20505;-76
2022/05/18 09:25:21;;;;;;;60.47;3.33;;;;;;;;;;5071775;28;20439;-76
2022/05/18 09:27:54;;;;;;;59.00;3.33;;;;;;;;;;5071498;28;20443;-76
2022/05/18 09:30:25;;;;;;;58.97;3.50;;;;;;;;;;5071383;28;21029;-76
2022/05/18 09:33:10;;;;;;;59.30;2.80;;;;;;;;;;5071573;28;20883;-76
2022/05/18 09:35:46;;;;;;;59.40;2.90;;;;;;;;;;5071133;28;20451;-76
2022/05/18 09:38:17;;;;;;;58.80;2.70;;;;;;;;;;5070391;28;20550;-75
2022/05/18 09:40:47;;;;;;;59.47;2.87;;;;;;;;;;5071043;28;20582;-76
2022/05/18 09:43:15;;;;;;;60.43;3.23;;;;;;;;;;5071537;28;20547;-75
2022/05/18 09:45:45;;;;;;;58.90;2.87;;;;;;;;;;5071451;28;20963;-76
2022/05/18 09:48:15;;;;;;;60.27;3.43;;;;;;;;;;5070748;28;20530;-76
2022/05/18 09:50:44;;;;;;;59.07;3.23;;;;;;;;;;5071433;28;20840;-75
2022/05/18 09:53:13;;;;;;;60.40;2.77;;;;;;;;;;5073406;28;20447;-75
2022/05/18 09:55:41;;;;;;;59.80;3.13;;;;;;;;;;5075111;28;20459;-78
2022/05/18 09:58:11;;;;;;;59.40;2.83;;;;;;;;;;5074902;28;20447;-78
2022/05/18 10:00:39;;;;;;;58.47;2.93;;;;;;;;;;5075074;28;21013;-75
2022/05/18 10:08:53;;;;;;;59.57;3.03;;;;;;;;;;5078142;28;20462;-77
2022/05/18 10:11:22;;;;;;;58.80;3.13;;;;;;;;;;5082021;28;20560;-76
2022/05/18 10:13:57;;;;;;;58.43;2.67;;;;;;;;;;5074524;28;20451;-77
2022/05/18 10:16:32;;;;;;;58.50;2.83;;;;;;;;;;5074634;28;20878;-77
2022/05/18 10:19:01;;;;;;;58.67;2.70;;;;;;;;;;5074648;28;20478;-77
2022/05/18 10:21:36;;;;;;;57.90;2.30;;;;;;;;;;5074443;28;20518;-77
2022/05/18 10:24:05;;;;;;;57.90;2.37;;;;;;;;;;5074574;28;20443;-78
2022/05/18 10:26:34;;;;;;;58.20;2.47;;;;;;;;;;5074510;28;20502;-78
2022/05/18 10:29:02;;;;;;;57.80;2.50;;;;;;;;;;5073848;28;20483;-78
2022/05/18 10:31:31;;;;;;;57.80;2.40;;;;;;;;;;5074596;28;20554;-78
2022/05/18 10:34:16;;;;;;;57.80;2.53;;;;;;;;;;5074112;28;20498;-78
2022/05/18 10:36:46;;;;;;;57.70;2.40;;;;;;;;;;5074179;28;20777;-77
2022/05/18 10:39:13;;;;;;;57.60;2.40;;;;;;;;;;5072975;28;20466;-77
2022/05/18 10:41:42;;;;;;;58.60;2.13;;;;;;;;;;5073764;28;20527;-78
2022/05/18 10:44:13;;;;;;;57.63;2.17;;;;;;;;;;5074334;28;20921;-78
2022/05/18 10:46:42;;;;;;;57.60;2.00;;;;;;;;;;5074153;28;20549;-78
2022/05/18 10:49:13;;;;;;;57.47;2.03;;;;;;;;;;5073187;28;20887;-77
2022/05/18 10:51:45;;;;;;;58.03;2.67;;;;;;;;;;5073933;28;20471;-78
2022/05/18 10:54:17;;;;;;;58.10;2.27;;;;;;;;;;5074111;28;20447;-77
2022/05/18 10:56:45;;;;;;;57.30;2.10;;;;;;;;;;5074211;28;20583;-78
2022/05/18 10:59:33;;;;;;;57.20;2.03;;;;;;;;;;5073462;28;20490;-79
2022/05/18 11:02:04;;;;;;;57.57;2.30;;;;;;;;;;5068952;28;20527;-78
2022/05/18 11:04:36;;;;;;;57.63;2.60;;;;;;;;;;5072987;28;20454;-78
2022/05/18 11:07:05;;;;;;;57.47;2.43;;;;;;;;;;5074146;28;20543;-78
2022/05/18 11:09:33;;;;;;;57.27;2.07;;;;;;;;;;5072893;28;20554;-78
2022/05/18 11:12:04;;;;;;;57.07;1.87;;;;;;;;;;5074015;28;20547;-79
2022/05/18 11:14:34;;;;;;;57.20;2.10;;;;;;;;;;5073958;28;20478;-78
2022/05/18 11:17:04;;;;;;;57.47;2.30;;;;;;;;;;5073789;28;20952;-78
2022/05/18 11:19:34;;;;;;;56.97;1.93;;;;;;;;;;5073445;28;20455;-78
2022/05/18 11:22:10;;;;;;;57.13;2.10;;;;;;;;;;5073712;28;20495;-78
2022/05/18 11:24:42;;;;;;;57.00;2.00;;;;;;;;;;5073552;28;20530;-77
2022/05/18 11:27:19;;;;;;;57.00;2.50;;;;;;;;;;5073039;28;20494;-78
2022/05/18 11:29:50;;;;;;;58.17;2.83;;;;;;;;;;5073378;28;20458;-78
2022/05/18 11:32:19;;;;;;;57.77;2.77;;;;;;;;;;5073667;28;20452;-79
2022/05/18 11:34:50;;;;;;;57.63;2.40;;;;;;;;;;5073458;28;20539;-77
2022/05/18 11:37:25;;;;;;;57.53;2.27;;;;;;;;;;5072730;28;20451;-79
2022/05/18 11:39:58;;;;;;;58.00;2.47;;;;;;;;;;5073082;28;20459;-78
2022/05/18 11:42:29;;;;;;;57.57;2.40;;;;;;;;;;5073230;28;20470;-79
2022/05/18 11:45:05;;;;;;;57.87;2.43;;;;;;;;;;5073099;28;20479;-78
2022/05/18 11:47:42;;;;;;;56.90;2.23;;;;;;;;;;5072732;28;20453;-79
2022/05/18 11:50:17;;;;;;;57.10;2.03;;;;;;;;;;5072962;28;20463;-78
2022/05/18 11:52:50;;;;;;;57.20;2.50;;;;;;;;;;5077356;28;20435;-79
2022/05/18 11:55:21;;;;;;;57.37;2.70;;;;;;;;;;5077428;28;21036;-78
2022/05/18 11:57:52;;;;;;;57.20;2.43;;;;;;;;;;5072435;28;20451;-78
2022/05/18 12:00:39;;;;;;;56.97;2.17;;;;;;;;;;5072847;28;20489;-78
2022/05/18 12:03:24;;;;;;;57.13;2.43;;;;;;;;;;5072546;28;20918;-78
2022/05/18 12:06:01;;;;;;;57.90;2.60;;;;;;;;;;5072992;28;20466;-78
2022/05/18 12:08:46;;;;;;;57.17;2.37;;;;;;;;;;5072602;28;20522;-80
2022/05/18 12:11:21;;;;;;;57.87;2.50;;;;;;;;;;5072580;28;20467;-78
2022/05/18 12:13:57;;;;;;;58.17;2.67;;;;;;;;;;5072555;28;20827;-78
2022/05/18 12:16:26;;;;;;;57.20;2.37;;;;;;;;;;5072890;28;20539;-78
2022/05/18 12:18:58;;;;;;;57.40;2.77;;;;;;;;;;5072856;28;20522;-78
2022/05/18 12:21:28;;;;;;;57.67;2.60;;;;;;;;;;5072206;28;20574;-78
2022/05/18 12:24:00;;;;;;;57.27;2.53;;;;;;;;;;5072632;28;20447;-78
2022/05/18 12:26:28;;;;;;;57.67;2.90;;;;;;;;;;5072887;28;20452;-78
2022/05/18 12:28:56;;;;;;;57.20;2.10;;;;;;;;;;5071720;28;20546;-79
2022/05/18 12:31:23;;;;;;;57.60;2.40;;;;;;;;;;5072043;28;21017;-77
2022/05/18 12:33:57;;;;;;;57.80;2.40;;;;;;;;;;5072142;28;20546;-77
2022/05/18 12:36:26;;;;;;;56.90;1.63;;;;;;;;;;5072271;28;20478;-77
2022/05/18 12:38:55;;;;;;;57.27;2.43;;;;;;;;;;5071313;28;20463;-78
2022/05/18 12:41:27;;;;;;;57.20;2.00;;;;;;;;;;5071817;28;20545;-77
2022/05/18 12:44:01;;;;;;;57.70;2.30;;;;;;;;;;5072253;28;20861;-77
2022/05/18 12:46:33;;;;;;;57.40;2.30;;;;;;;;;;5072077;28;20789;-77
2022/05/18 12:49:02;;;;;;;57.07;1.93;;;;;;;;;;5071606;28;20819;-78
2022/05/18 12:51:38;;;;;;;57.70;2.67;;;;;;;;;;5072119;28;20892;-78
2022/05/18 12:54:25;;;;;;;57.40;2.20;;;;;;;;;;5072369;28;20531;-78
2022/05/18 12:57:10;;;;;;;57.30;2.13;;;;;;;;;;5071861;28;20943;-78
2022/05/18 12:59:50;;;;;;;58.80;2.33;;;;;;;;;;5072080;28;20462;-78
2022/05/18 13:02:20;;;;;;;57.17;2.40;;;;;;;;;;5072106;28;20513;-78
2022/05/18 13:04:48;;;;;;;57.30;2.70;;;;;;;;;;5072436;28;20457;-78
2022/05/18 13:07:25;;;;;;;57.40;2.53;;;;;;;;;;5071073;28;20876;-78
2022/05/18 13:09:55;;;;;;;57.30;2.33;;;;;;;;;;5071732;28;20478;-77
2022/05/18 13:12:37;;;;;;;58.33;2.53;;;;;;;;;;5072002;28;20462;-77
2022/05/18 13:15:08;;;;;;;57.17;2.23;;;;;;;;;;5071666;28;20485;-77
2022/05/18 13:17:49;;;;;;;56.93;2.10;;;;;;;;;;5070938;28;20439;-78
2022/05/18 13:20:30;;;;;;;57.47;2.40;;;;;;;;;;5071862;28;20514;-78
2022/05/18 13:23:00;;;;;;;57.70;2.50;;;;;;;;;;5071502;28;21115;-77
2022/05/18 13:25:28;;;;;;;57.50;2.20;;;;;;;;;;5072340;28;20485;-78
2022/05/18 13:27:57;;;;;;;57.37;2.23;;;;;;;;;;5071995;28;20462;-77
2022/05/18 13:30:36;;;;;;;57.20;2.30;;;;;;;;;;5075864;28;20561;-77
2022/05/18 13:33:03;;;;;;;57.37;2.50;;;;;;;;;;5075830;28;20882;-77
2022/05/18 13:35:31;;;;;;;57.33;2.13;;;;;;;;;;5075527;28;20529;-77
2022/05/18 13:38:11;;;;;;;57.50;2.60;;;;;;;;;;5075105;28;20501;-77
2022/05/18 13:40:39;;;;;;;59.73;3.07;;;;;;;;;;5075120;28;21050;-77
2022/05/18 13:43:08;;;;;;;58.87;2.60;;;;;;;;;;5075044;28;20574;-77
2022/05/18 13:45:36;;;;;;;58.00;2.63;;;;;;;;;;5075540;28;20819;-78
2022/05/18 13:48:10;;;;;;;57.30;2.30;;;;;;;;;;5074920;28;20451;-77
2022/05/18 13:50:38;;;;;;;58.20;2.63;;;;;;;;;;5085718;28;20466;-79
2022/05/18 13:53:07;;;;;;;59.30;2.43;;;;;;;;;;5079176;28;20526;-78
2022/05/18 13:55:39;;;;;;;57.17;2.17;;;;;;;;;;5075527;28;20818;-77
2022/05/18 13:58:08;;;;;;;60.00;2.53;;;;;;;;;;5074481;28;21014;-77
2022/05/18 14:00:38;;;;;;;57.63;2.37;;;;;;;;;;5075143;28;20547;-77
2022/05/18 14:03:05;;;;;;;58.20;2.20;;;;;;;;;;5074868;28;20486;-76
2022/05/18 14:05:35;;;;;;;57.17;1.80;;;;;;;;;;5074869;28;20475;-77
2022/05/18 14:08:03;;;;;;;57.00;1.90;;;;;;;;;;5074121;28;20466;-77
2022/05/18 14:10:30;;;;;;;57.60;2.33;;;;;;;;;;5075124;28;20473;-77
2022/05/18 14:12:58;;;;;;;60.47;2.40;;;;;;;;;;5074745;28;20472;-77
2022/05/18 14:15:29;;;;;;;57.80;2.30;;;;;;;;;;5074881;28;20948;-76
2022/05/18 14:17:57;;;;;;;57.30;2.10;;;;;;;;;;5073875;28;20447;-77
2022/05/18 14:20:26;;;;;;;57.27;2.40;;;;;;;;;;5074788;28;20607;-77
2022/05/18 14:22:57;;;;;;;57.50;2.10;;;;;;;;;;5074787;28;20485;-76
2022/05/18 14:25:25;;;;;;;58.00;2.20;;;;;;;;;;5074914;28;20883;-77
2022/05/18 14:27:54;;;;;;;57.20;1.90;;;;;;;;;;5073814;28;20453;-77
2022/05/18 14:30:23;;;;;;;57.40;2.27;;;;;;;;;;5074451;28;20554;-77
2022/05/18 14:32:53;;;;;;;57.03;1.80;;;;;;;;;;5074629;28;20478;-77
2022/05/18 14:35:22;;;;;;;57.43;2.17;;;;;;;;;;5074481;28;20455;-77
2022/05/18 14:37:51;;;;;;;57.17;2.10;;;;;;;;;;5073711;28;20553;-77
2022/05/18 14:40:20;;;;;;;57.30;2.20;;;;;;;;;;5073113;28;20721;-77
2022/05/18 14:42:51;;;;;;;57.17;2.00;;;;;;;;;;5074065;28;20537;-77
2022/05/18 14:45:25;;;;;;;57.37;2.27;;;;;;;;;;5074606;28;20451;-77
2022/05/18 14:47:54;;;;;;;57.90;2.80;;;;;;;;;;5073846;28;20455;-77
2022/05/18 14:50:25;;;;;;;57.50;2.63;;;;;;;;;;5074139;28;20846;-77
2022/05/18 14:52:55;;;;;;;57.33;2.20;;;;;;;;;;5074265;28;20444;-77
2022/05/18 14:55:26;;;;;;;58.67;2.77;;;;;;;;;;5073991;28;20842;-77
2022/05/18 14:57:53;;;;;;;57.47;2.30;;;;;;;;;;5073474;28;20448;-77
2022/05/18 15:00:23;;;;;;;57.50;2.10;;;;;;;;;;5073992;28;20476;-77
2022/05/18 15:02:51;;;;;;;57.87;2.57;;;;;;;;;;5074129;28;20479;-77